Aérodrome :
LOGIN :

S'inscrire | Disclaimer

   EN    FR    IT 

 










Légende :    VFR   VFR Marginal   IFR   IFR Intensif   IFR Très Intensif
Visi : 
Plafond : 
>= 8 km
>= 3000ft
5 à 8 km
1000 à 3000 ft
1500m à 5 km
500 à 1000 ft
800 à 1500m
200 à 500 ft
< 800m
< 200 ft
Symboles :   Orages  Brouillard  Fortes neiges  Fortes précipitations  Vent > 20 kt
SIGMETs :   Divers  Orages  Givrage  Turbulence  Onde Orograph.  Cendres Volcan.






- Altitude de l'aérodrome : 1106 ft


LFSO - Nancy / Ochey

DERNIER METAR :
  • 301630Z AUTO 29012KT 9999 OVC034/// ///TCU 16/10 Q1015 TEMPO 30020G40KT 2000 TSRA BKN013 BKN040CB

METARs EXPIRÉS :
  • 301600Z AUTO 30018G32KT 9999 SCT018 OVC028 16/11 Q1015 TEMPO 2000 TSRA BKN013 BKN040CB
  • 301530Z AUTO 28019KT 9999 OVC015 16/11 Q1014 TEMPO 30020G40KT 2000 TSRA BKN013 BKN040CB
  • 301500Z AUTO 30021G31KT 9999 BKN013 BKN018 OVC024 16/12 Q1014 TEMPO 2000 TSRA BKN013 BKN040CB
  • 301430Z AUTO 30018KT 9999 FEW029 SCT072 BKN096 22/15 Q1013 TEMPO 30020G40KT 2000 TSRA BKN013 BKN040CB
  • 301400Z AUTO 28015KT 250V310 CAVOK 23/15 Q1012 TEMPO 30020G40KT 2000 TSRA BKN013 BKN040CB

TAF AMD TAF LFSO
Valide du 30 à 15h jusqu'au 01 à 15h UTC


301433Z 3015/0115 28015KT 9999 BKN020
TEMPO 3015/3019 29015G25KT 4000 SHRA SCT013 SCT030CB BKN040
PROB40
TEMPO 3015/3019 30020G40KT 2000 TSRA BKN013 BKN040CB
PROB30
TEMPO 3015/3016 TSGS
BECMG 3019/3021 25003KT BKN015
TEMPO 3021/0106 BKN010
BECMG 0106/0108 27008KT SCT030



MET'MAP, la Météo Aéronautique d'un coup d'oeil ! - Copyright ORBIFLY Décembre 2007 - Disclaimer

ORBIFLY MET'MAP TEAM :

Programmation & Développement : Alexandra Zaïnal
Sur une idée originale de : Baudouin d'Aumeries
Soutien technique & logistique : Manuel Goepfert
Assistance : Marc-Olivier Méhu




SOURCES & CREDITS :

   NOAA